sensor_id;sensor_type;location;lat;lon;timestamp;P1;durP1;ratioP1;P2;durP2;ratioP2
84357;SDS011;74548;47.712;9.272;2024-02-26T00:00:13;0.40;;;0.40;;
84357;SDS011;74548;47.712;9.272;2024-02-26T00:02:39;0.90;;;0.50;;
84357;SDS011;74548;47.712;9.272;2024-02-26T00:07:24;0.52;;;0.32;;
84357;SDS011;74548;47.712;9.272;2024-02-26T00:09:49;0.70;;;0.40;;
84357;SDS011;74548;47.712;9.272;2024-02-26T00:12:14;0.80;;;0.40;;
84357;SDS011;74548;47.712;9.272;2024-02-26T00:17:01;1.00;;;0.40;;
84357;SDS011;74548;47.712;9.272;2024-02-26T00:19:27;0.88;;;0.40;;
84357;SDS011;74548;47.712;9.272;2024-02-26T00:21:53;0.70;;;0.40;;
84357;SDS011;74548;47.712;9.272;2024-02-26T00:24:20;1.13;;;0.50;;
84357;SDS011;74548;47.712;9.272;2024-02-26T00:26:45;0.83;;;0.43;;
84357;SDS011;74548;47.712;9.272;2024-02-26T00:29:10;0.80;;;0.40;;
84357;SDS011;74548;47.712;9.272;2024-02-26T00:31:36;1.20;;;0.63;;
84357;SDS011;74548;47.712;9.272;2024-02-26T00:34:02;0.80;;;0.40;;
84357;SDS011;74548;47.712;9.272;2024-02-26T00:36:27;0.50;;;0.37;;
84357;SDS011;74548;47.712;9.272;2024-02-26T00:38:52;0.98;;;0.47;;
84357;SDS011;74548;47.712;9.272;2024-02-26T00:43:38;1.08;;;0.43;;
84357;SDS011;74548;47.712;9.272;2024-02-26T00:46:05;1.17;;;0.70;;
84357;SDS011;74548;47.712;9.272;2024-02-26T00:48:30;0.40;;;0.40;;
84357;SDS011;74548;47.712;9.272;2024-02-26T00:50:55;0.80;;;0.50;;
84357;SDS011;74548;47.712;9.272;2024-02-26T00:53:21;1.00;;;0.50;;
84357;SDS011;74548;47.712;9.272;2024-02-26T00:55:46;0.60;;;0.40;;
84357;SDS011;74548;47.712;9.272;2024-02-26T00:58:12;0.90;;;0.50;;
84357;SDS011;74548;47.712;9.272;2024-02-26T01:00:37;0.43;;;0.43;;
84357;SDS011;74548;47.712;9.272;2024-02-26T01:03:02;0.68;;;0.50;;
84357;SDS011;74548;47.712;9.272;2024-02-26T01:05:29;0.57;;;0.40;;
84357;SDS011;74548;47.712;9.272;2024-02-26T01:07:54;0.37;;;0.30;;
84357;SDS011;74548;47.712;9.272;2024-02-26T01:10:20;0.82;;;0.45;;
84357;SDS011;74548;47.712;9.272;2024-02-26T01:12:45;0.97;;;0.43;;
84357;SDS011;74548;47.712;9.272;2024-02-26T01:15:11;0.87;;;0.50;;
84357;SDS011;74548;47.712;9.272;2024-02-26T01:19:55;0.75;;;0.40;;
84357;SDS011;74548;47.712;9.272;2024-02-26T01:22:21;0.90;;;0.43;;
84357;SDS011;74548;47.712;9.272;2024-02-26T01:24:47;0.57;;;0.38;;
84357;SDS011;74548;47.712;9.272;2024-02-26T01:27:13;1.10;;;0.40;;
84357;SDS011;74548;47.712;9.272;2024-02-26T01:29:40;0.32;;;0.32;;
84357;SDS011;74548;47.712;9.272;2024-02-26T01:32:06;0.57;;;0.30;;
84357;SDS011;74548;47.712;9.272;2024-02-26T01:34:31;0.90;;;0.50;;
84357;SDS011;74548;47.712;9.272;2024-02-26T01:36:56;0.93;;;0.38;;
84357;SDS011;74548;47.712;9.272;2024-02-26T01:39:22;0.93;;;0.50;;
84357;SDS011;74548;47.712;9.272;2024-02-26T01:41:47;0.43;;;0.30;;
84357;SDS011;74548;47.712;9.272;2024-02-26T01:44:13;0.37;;;0.23;;
84357;SDS011;74548;47.712;9.272;2024-02-26T01:46:38;0.73;;;0.50;;
84357;SDS011;74548;47.712;9.272;2024-02-26T01:49:04;0.80;;;0.52;;
84357;SDS011;74548;47.712;9.272;2024-02-26T01:51:31;0.52;;;0.30;;
84357;SDS011;74548;47.712;9.272;2024-02-26T01:53:58;0.90;;;0.40;;
84357;SDS011;74548;47.712;9.272;2024-02-26T01:56:26;0.70;;;0.50;;
84357;SDS011;74548;47.712;9.272;2024-02-26T01:58:55;0.90;;;0.40;;
84357;SDS011;74548;47.712;9.272;2024-02-26T02:01:21;1.52;;;0.32;;
84357;SDS011;74548;47.712;9.272;2024-02-26T02:06:11;0.63;;;0.40;;
84357;SDS011;74548;47.712;9.272;2024-02-26T02:08:37;0.60;;;0.50;;
84357;SDS011;74548;47.712;9.272;2024-02-26T02:11:03;0.55;;;0.38;;
84357;SDS011;74548;47.712;9.272;2024-02-26T02:13:28;2.55;;;0.43;;
84357;SDS011;74548;47.712;9.272;2024-02-26T02:15:53;1.00;;;0.55;;
84357;SDS011;74548;47.712;9.272;2024-02-26T02:18:19;1.17;;;0.50;;
84357;SDS011;74548;47.712;9.272;2024-02-26T02:20:44;1.25;;;0.55;;
84357;SDS011;74548;47.712;9.272;2024-02-26T02:23:10;1.10;;;0.53;;
84357;SDS011;74548;47.712;9.272;2024-02-26T02:25:40;1.00;;;0.70;;
84357;SDS011;74548;47.712;9.272;2024-02-26T02:28:06;1.30;;;0.50;;
84357;SDS011;74548;47.712;9.272;2024-02-26T02:30:31;0.80;;;0.50;;
84357;SDS011;74548;47.712;9.272;2024-02-26T02:32:58;0.70;;;0.60;;
84357;SDS011;74548;47.712;9.272;2024-02-26T02:35:24;0.70;;;0.50;;
84357;SDS011;74548;47.712;9.272;2024-02-26T02:37:51;0.90;;;0.50;;
84357;SDS011;74548;47.712;9.272;2024-02-26T02:40:17;1.65;;;0.73;;
84357;SDS011;74548;47.712;9.272;2024-02-26T02:42:42;1.58;;;0.50;;
84357;SDS011;74548;47.712;9.272;2024-02-26T02:45:08;0.93;;;0.65;;
84357;SDS011;74548;47.712;9.272;2024-02-26T02:47:35;1.40;;;0.77;;
84357;SDS011;74548;47.712;9.272;2024-02-26T02:50:02;0.90;;;0.50;;
84357;SDS011;74548;47.712;9.272;2024-02-26T02:52:28;0.98;;;0.68;;
84357;SDS011;74548;47.712;9.272;2024-02-26T02:54:53;1.07;;;0.67;;
84357;SDS011;74548;47.712;9.272;2024-02-26T02:57:18;0.87;;;0.53;;
84357;SDS011;74548;47.712;9.272;2024-02-26T02:59:44;1.30;;;0.50;;
84357;SDS011;74548;47.712;9.272;2024-02-26T03:04:29;0.98;;;0.70;;
84357;SDS011;74548;47.712;9.272;2024-02-26T03:06:55;0.95;;;0.70;;
84357;SDS011;74548;47.712;9.272;2024-02-26T03:09:22;1.20;;;0.63;;
84357;SDS011;74548;47.712;9.272;2024-02-26T03:11:48;0.63;;;0.40;;
84357;SDS011;74548;47.712;9.272;2024-02-26T03:14:13;0.90;;;0.70;;
84357;SDS011;74548;47.712;9.272;2024-02-26T03:21:17;1.10;;;0.68;;
84357;SDS011;74548;47.712;9.272;2024-02-26T03:23:43;1.58;;;0.77;;
84357;SDS011;74548;47.712;9.272;2024-02-26T03:26:08;1.17;;;0.70;;
84357;SDS011;74548;47.712;9.272;2024-02-26T03:28:38;1.85;;;0.73;;
84357;SDS011;74548;47.712;9.272;2024-02-26T03:31:04;1.30;;;0.75;;
84357;SDS011;74548;47.712;9.272;2024-02-26T03:33:29;3.03;;;0.87;;
84357;SDS011;74548;47.712;9.272;2024-02-26T03:35:54;1.53;;;0.57;;
84357;SDS011;74548;47.712;9.272;2024-02-26T03:38:19;1.20;;;0.70;;
84357;SDS011;74548;47.712;9.272;2024-02-26T03:43:13;1.00;;;0.55;;
84357;SDS011;74548;47.712;9.272;2024-02-26T03:45:38;2.75;;;0.90;;
84357;SDS011;74548;47.712;9.272;2024-02-26T03:48:03;0.98;;;0.70;;
84357;SDS011;74548;47.712;9.272;2024-02-26T03:50:29;0.82;;;0.60;;
84357;SDS011;74548;47.712;9.272;2024-02-26T03:52:54;1.67;;;0.60;;
84357;SDS011;74548;47.712;9.272;2024-02-26T03:55:21;1.10;;;0.60;;
84357;SDS011;74548;47.712;9.272;2024-02-26T03:57:50;1.27;;;0.60;;
84357;SDS011;74548;47.712;9.272;2024-02-26T04:00:16;1.10;;;0.80;;
84357;SDS011;74548;47.712;9.272;2024-02-26T04:02:41;1.73;;;0.60;;
84357;SDS011;74548;47.712;9.272;2024-02-26T04:05:09;1.83;;;0.77;;
84357;SDS011;74548;47.712;9.272;2024-02-26T04:07:38;0.80;;;0.50;;
84357;SDS011;74548;47.712;9.272;2024-02-26T04:10:08;0.52;;;0.50;;
84357;SDS011;74548;47.712;9.272;2024-02-26T04:12:34;1.42;;;0.60;;
84357;SDS011;74548;47.712;9.272;2024-02-26T04:15:00;1.45;;;0.65;;
84357;SDS011;74548;47.712;9.272;2024-02-26T04:17:25;1.33;;;0.60;;
84357;SDS011;74548;47.712;9.272;2024-02-26T04:19:50;1.40;;;0.80;;
84357;SDS011;74548;47.712;9.272;2024-02-26T04:22:15;1.00;;;0.67;;
84357;SDS011;74548;47.712;9.272;2024-02-26T04:24:41;1.10;;;0.65;;
84357;SDS011;74548;47.712;9.272;2024-02-26T04:27:06;1.27;;;0.53;;
84357;SDS011;74548;47.712;9.272;2024-02-26T04:29:31;0.97;;;0.67;;
84357;SDS011;74548;47.712;9.272;2024-02-26T04:31:57;1.27;;;0.70;;
84357;SDS011;74548;47.712;9.272;2024-02-26T04:34:22;1.40;;;0.80;;
84357;SDS011;74548;47.712;9.272;2024-02-26T04:39:32;1.02;;;0.50;;
84357;SDS011;74548;47.712;9.272;2024-02-26T04:41:57;1.45;;;0.60;;
84357;SDS011;74548;47.712;9.272;2024-02-26T04:44:23;1.30;;;0.80;;
84357;SDS011;74548;47.712;9.272;2024-02-26T04:46:48;0.67;;;0.47;;
84357;SDS011;74548;47.712;9.272;2024-02-26T04:49:13;1.30;;;0.60;;
84357;SDS011;74548;47.712;9.272;2024-02-26T04:51:38;0.80;;;0.53;;
84357;SDS011;74548;47.712;9.272;2024-02-26T04:54:04;1.10;;;0.80;;
84357;SDS011;74548;47.712;9.272;2024-02-26T04:56:29;1.77;;;0.70;;
84357;SDS011;74548;47.712;9.272;2024-02-26T04:58:55;1.33;;;0.50;;
84357;SDS011;74548;47.712;9.272;2024-02-26T05:01:20;0.95;;;0.70;;
84357;SDS011;74548;47.712;9.272;2024-02-26T05:06:00;2.40;;;0.80;;
84357;SDS011;74548;47.712;9.272;2024-02-26T05:08:25;0.77;;;0.60;;
84357;SDS011;74548;47.712;9.272;2024-02-26T05:10:51;0.90;;;0.70;;
84357;SDS011;74548;47.712;9.272;2024-02-26T05:15:33;1.25;;;0.80;;
84357;SDS011;74548;47.712;9.272;2024-02-26T05:17:59;1.23;;;0.70;;
84357;SDS011;74548;47.712;9.272;2024-02-26T05:20:24;2.75;;;0.80;;
84357;SDS011;74548;47.712;9.272;2024-02-26T05:22:50;1.45;;;0.70;;
84357;SDS011;74548;47.712;9.272;2024-02-26T05:25:16;1.27;;;0.68;;
84357;SDS011;74548;47.712;9.272;2024-02-26T05:27:42;1.85;;;0.77;;
84357;SDS011;74548;47.712;9.272;2024-02-26T05:30:08;0.98;;;0.57;;
84357;SDS011;74548;47.712;9.272;2024-02-26T05:32:34;1.10;;;0.70;;
84357;SDS011;74548;47.712;9.272;2024-02-26T05:35:00;1.08;;;0.60;;
84357;SDS011;74548;47.712;9.272;2024-02-26T05:37:25;1.33;;;0.73;;
84357;SDS011;74548;47.712;9.272;2024-02-26T05:39:50;1.15;;;0.70;;
84357;SDS011;74548;47.712;9.272;2024-02-26T05:42:17;1.10;;;0.70;;
84357;SDS011;74548;47.712;9.272;2024-02-26T05:44:42;1.42;;;0.80;;
84357;SDS011;74548;47.712;9.272;2024-02-26T05:47:08;1.40;;;0.80;;
84357;SDS011;74548;47.712;9.272;2024-02-26T05:49:33;1.05;;;0.80;;
84357;SDS011;74548;47.712;9.272;2024-02-26T05:51:59;1.07;;;0.70;;
84357;SDS011;74548;47.712;9.272;2024-02-26T05:54:24;1.20;;;0.80;;
84357;SDS011;74548;47.712;9.272;2024-02-26T05:56:49;1.30;;;0.73;;
84357;SDS011;74548;47.712;9.272;2024-02-26T05:59:15;1.33;;;1.02;;
84357;SDS011;74548;47.712;9.272;2024-02-26T06:01:41;1.10;;;0.70;;
84357;SDS011;74548;47.712;9.272;2024-02-26T06:04:07;1.30;;;0.70;;
84357;SDS011;74548;47.712;9.272;2024-02-26T06:06:32;1.30;;;0.90;;
84357;SDS011;74548;47.712;9.272;2024-02-26T06:08:57;0.90;;;0.60;;
84357;SDS011;74548;47.712;9.272;2024-02-26T06:11:23;1.85;;;0.88;;
84357;SDS011;74548;47.712;9.272;2024-02-26T06:13:48;1.67;;;0.80;;
84357;SDS011;74548;47.712;9.272;2024-02-26T06:16:13;1.20;;;0.80;;
84357;SDS011;74548;47.712;9.272;2024-02-26T06:18:39;1.90;;;0.90;;
84357;SDS011;74548;47.712;9.272;2024-02-26T06:21:04;2.80;;;0.80;;
84357;SDS011;74548;47.712;9.272;2024-02-26T06:25:46;2.20;;;0.80;;
84357;SDS011;74548;47.712;9.272;2024-02-26T06:28:13;1.67;;;0.80;;
84357;SDS011;74548;47.712;9.272;2024-02-26T06:30:38;1.33;;;0.82;;
84357;SDS011;74548;47.712;9.272;2024-02-26T06:33:03;1.03;;;0.80;;
84357;SDS011;74548;47.712;9.272;2024-02-26T06:35:29;1.23;;;1.02;;
84357;SDS011;74548;47.712;9.272;2024-02-26T06:37:54;1.67;;;1.00;;
84357;SDS011;74548;47.712;9.272;2024-02-26T06:40:20;0.83;;;0.50;;
84357;SDS011;74548;47.712;9.272;2024-02-26T06:45:15;1.40;;;1.10;;
84357;SDS011;74548;47.712;9.272;2024-02-26T06:47:41;1.55;;;1.08;;
84357;SDS011;74548;47.712;9.272;2024-02-26T06:50:07;2.55;;;0.88;;
84357;SDS011;74548;47.712;9.272;2024-02-26T06:54:49;2.10;;;0.90;;
84357;SDS011;74548;47.712;9.272;2024-02-26T06:57:16;1.25;;;0.85;;
84357;SDS011;74548;47.712;9.272;2024-02-26T06:59:41;1.20;;;0.80;;
84357;SDS011;74548;47.712;9.272;2024-02-26T07:02:10;1.30;;;0.80;;
84357;SDS011;74548;47.712;9.272;2024-02-26T07:04:36;2.08;;;0.93;;
84357;SDS011;74548;47.712;9.272;2024-02-26T07:07:02;1.35;;;0.88;;
84357;SDS011;74548;47.712;9.272;2024-02-26T07:09:27;1.10;;;0.77;;
84357;SDS011;74548;47.712;9.272;2024-02-26T07:14:20;1.50;;;1.10;;
84357;SDS011;74548;47.712;9.272;2024-02-26T07:16:46;0.75;;;0.68;;
84357;SDS011;74548;47.712;9.272;2024-02-26T07:19:11;1.30;;;0.70;;
84357;SDS011;74548;47.712;9.272;2024-02-26T07:21:36;1.45;;;0.80;;
84357;SDS011;74548;47.712;9.272;2024-02-26T07:24:02;1.10;;;0.60;;
84357;SDS011;74548;47.712;9.272;2024-02-26T07:26:27;1.30;;;0.75;;
84357;SDS011;74548;47.712;9.272;2024-02-26T07:28:54;1.70;;;0.93;;
84357;SDS011;74548;47.712;9.272;2024-02-26T07:31:20;1.48;;;0.85;;
84357;SDS011;74548;47.712;9.272;2024-02-26T07:33:45;1.55;;;1.00;;
84357;SDS011;74548;47.712;9.272;2024-02-26T07:36:11;1.70;;;0.93;;
84357;SDS011;74548;47.712;9.272;2024-02-26T07:38:37;1.13;;;0.80;;
84357;SDS011;74548;47.712;9.272;2024-02-26T07:41:02;1.17;;;0.97;;
84357;SDS011;74548;47.712;9.272;2024-02-26T07:43:28;1.83;;;0.98;;
84357;SDS011;74548;47.712;9.272;2024-02-26T07:45:53;2.40;;;1.15;;
84357;SDS011;74548;47.712;9.272;2024-02-26T07:48:19;1.25;;;0.70;;
84357;SDS011;74548;47.712;9.272;2024-02-26T07:50:44;1.30;;;0.77;;
84357;SDS011;74548;47.712;9.272;2024-02-26T07:53:09;2.67;;;0.82;;
84357;SDS011;74548;47.712;9.272;2024-02-26T07:55:35;1.87;;;0.90;;
84357;SDS011;74548;47.712;9.272;2024-02-26T08:00:13;1.95;;;0.90;;
84357;SDS011;74548;47.712;9.272;2024-02-26T08:02:41;1.85;;;1.00;;
84357;SDS011;74548;47.712;9.272;2024-02-26T08:05:07;1.92;;;0.98;;
84357;SDS011;74548;47.712;9.272;2024-02-26T08:07:32;1.33;;;0.95;;
84357;SDS011;74548;47.712;9.272;2024-02-26T08:09:58;1.88;;;1.30;;
84357;SDS011;74548;47.712;9.272;2024-02-26T08:12:23;1.13;;;0.73;;
84357;SDS011;74548;47.712;9.272;2024-02-26T08:14:48;1.50;;;0.90;;
84357;SDS011;74548;47.712;9.272;2024-02-26T08:17:14;1.55;;;0.80;;
84357;SDS011;74548;47.712;9.272;2024-02-26T08:19:39;1.17;;;0.90;;
84357;SDS011;74548;47.712;9.272;2024-02-26T08:22:04;1.75;;;0.90;;
84357;SDS011;74548;47.712;9.272;2024-02-26T08:24:30;1.60;;;0.97;;
84357;SDS011;74548;47.712;9.272;2024-02-26T08:26:55;1.42;;;0.82;;
84357;SDS011;74548;47.712;9.272;2024-02-26T08:29:21;1.63;;;0.90;;
84357;SDS011;74548;47.712;9.272;2024-02-26T08:31:46;1.63;;;0.90;;
84357;SDS011;74548;47.712;9.272;2024-02-26T08:34:12;1.15;;;0.82;;
84357;SDS011;74548;47.712;9.272;2024-02-26T08:36:37;1.30;;;0.90;;
84357;SDS011;74548;47.712;9.272;2024-02-26T08:39:02;1.33;;;0.90;;
84357;SDS011;74548;47.712;9.272;2024-02-26T08:41:28;1.30;;;0.75;;
84357;SDS011;74548;47.712;9.272;2024-02-26T08:43:54;1.13;;;0.75;;
84357;SDS011;74548;47.712;9.272;2024-02-26T08:46:19;0.88;;;0.65;;
84357;SDS011;74548;47.712;9.272;2024-02-26T08:48:45;1.55;;;0.90;;
84357;SDS011;74548;47.712;9.272;2024-02-26T08:51:10;1.60;;;1.03;;
84357;SDS011;74548;47.712;9.272;2024-02-26T08:53:35;1.25;;;1.00;;
84357;SDS011;74548;47.712;9.272;2024-02-26T08:56:01;1.55;;;0.85;;
84357;SDS011;74548;47.712;9.272;2024-02-26T08:58:27;2.53;;;1.10;;
84357;SDS011;74548;47.712;9.272;2024-02-26T09:00:53;1.40;;;0.90;;
84357;SDS011;74548;47.712;9.272;2024-02-26T09:03:19;1.30;;;0.90;;
84357;SDS011;74548;47.712;9.272;2024-02-26T09:05:45;1.85;;;0.90;;
84357;SDS011;74548;47.712;9.272;2024-02-26T09:08:10;3.30;;;1.10;;
84357;SDS011;74548;47.712;9.272;2024-02-26T09:10:35;1.13;;;1.03;;
84357;SDS011;74548;47.712;9.272;2024-02-26T09:13:01;1.63;;;0.90;;
84357;SDS011;74548;47.712;9.272;2024-02-26T09:15:27;1.80;;;0.90;;
84357;SDS011;74548;47.712;9.272;2024-02-26T09:17:52;2.33;;;1.00;;
84357;SDS011;74548;47.712;9.272;2024-02-26T09:20:18;0.98;;;0.75;;
84357;SDS011;74548;47.712;9.272;2024-02-26T09:22:46;4.22;;;1.20;;
84357;SDS011;74548;47.712;9.272;2024-02-26T09:25:13;1.83;;;1.02;;
84357;SDS011;74548;47.712;9.272;2024-02-26T09:27:40;1.55;;;1.00;;
84357;SDS011;74548;47.712;9.272;2024-02-26T09:30:06;1.63;;;1.10;;
84357;SDS011;74548;47.712;9.272;2024-02-26T09:32:32;1.67;;;1.00;;
84357;SDS011;74548;47.712;9.272;2024-02-26T09:34:58;1.70;;;0.70;;
84357;SDS011;74548;47.712;9.272;2024-02-26T09:37:23;1.83;;;0.90;;
84357;SDS011;74548;47.712;9.272;2024-02-26T09:39:49;1.65;;;1.20;;
84357;SDS011;74548;47.712;9.272;2024-02-26T09:42:14;1.23;;;0.70;;
84357;SDS011;74548;47.712;9.272;2024-02-26T09:44:43;1.65;;;0.70;;
84357;SDS011;74548;47.712;9.272;2024-02-26T09:47:10;1.17;;;0.75;;
84357;SDS011;74548;47.712;9.272;2024-02-26T09:49:38;1.85;;;1.00;;
84357;SDS011;74548;47.712;9.272;2024-02-26T09:52:06;1.88;;;0.82;;
84357;SDS011;74548;47.712;9.272;2024-02-26T09:54:34;1.15;;;0.55;;
84357;SDS011;74548;47.712;9.272;2024-02-26T09:57:00;1.63;;;0.80;;
84357;SDS011;74548;47.712;9.272;2024-02-26T09:59:29;1.80;;;0.90;;
84357;SDS011;74548;47.712;9.272;2024-02-26T10:01:59;1.40;;;0.80;;
84357;SDS011;74548;47.712;9.272;2024-02-26T10:04:26;1.73;;;0.90;;
84357;SDS011;74548;47.712;9.272;2024-02-26T10:06:52;1.60;;;1.00;;
84357;SDS011;74548;47.712;9.272;2024-02-26T10:09:18;1.02;;;0.63;;
84357;SDS011;74548;47.712;9.272;2024-02-26T10:11:45;2.03;;;0.93;;
84357;SDS011;74548;47.712;9.272;2024-02-26T10:14:14;0.95;;;0.60;;
84357;SDS011;74548;47.712;9.272;2024-02-26T10:18:53;1.80;;;1.00;;
84357;SDS011;74548;47.712;9.272;2024-02-26T10:21:21;1.55;;;0.90;;
84357;SDS011;74548;47.712;9.272;2024-02-26T10:23:47;1.95;;;1.05;;
84357;SDS011;74548;47.712;9.272;2024-02-26T10:26:14;1.42;;;0.80;;
84357;SDS011;74548;47.712;9.272;2024-02-26T10:28:44;1.70;;;0.90;;
84357;SDS011;74548;47.712;9.272;2024-02-26T10:31:10;1.42;;;1.00;;
84357;SDS011;74548;47.712;9.272;2024-02-26T10:33:38;1.70;;;0.88;;
84357;SDS011;74548;47.712;9.272;2024-02-26T10:36:04;2.08;;;0.98;;
84357;SDS011;74548;47.712;9.272;2024-02-26T10:40:59;1.70;;;0.90;;
84357;SDS011;74548;47.712;9.272;2024-02-26T10:43:27;1.85;;;1.08;;
84357;SDS011;74548;47.712;9.272;2024-02-26T10:45:54;1.67;;;0.70;;
84357;SDS011;74548;47.712;9.272;2024-02-26T10:48:20;1.85;;;0.90;;
84357;SDS011;74548;47.712;9.272;2024-02-26T10:50:46;1.20;;;0.80;;
84357;SDS011;74548;47.712;9.272;2024-02-26T10:53:13;1.42;;;0.82;;
84357;SDS011;74548;47.712;9.272;2024-02-26T10:55:43;2.15;;;1.00;;
84357;SDS011;74548;47.712;9.272;2024-02-26T10:58:13;1.75;;;1.05;;
84357;SDS011;74548;47.712;9.272;2024-02-26T11:00:39;2.33;;;1.05;;
84357;SDS011;74548;47.712;9.272;2024-02-26T11:03:05;1.90;;;0.88;;
84357;SDS011;74548;47.712;9.272;2024-02-26T11:05:33;1.10;;;0.80;;
84357;SDS011;74548;47.712;9.272;2024-02-26T11:07:59;1.75;;;1.00;;
84357;SDS011;74548;47.712;9.272;2024-02-26T11:10:25;1.77;;;1.02;;
84357;SDS011;74548;47.712;9.272;2024-02-26T11:12:55;1.15;;;0.90;;
84357;SDS011;74548;47.712;9.272;2024-02-26T11:15:22;1.73;;;0.90;;
84357;SDS011;74548;47.712;9.272;2024-02-26T11:17:49;1.23;;;0.88;;
84357;SDS011;74548;47.712;9.272;2024-02-26T11:20:17;1.20;;;0.80;;
84357;SDS011;74548;47.712;9.272;2024-02-26T11:22:44;1.63;;;0.73;;
84357;SDS011;74548;47.712;9.272;2024-02-26T11:25:10;2.53;;;1.30;;
84357;SDS011;74548;47.712;9.272;2024-02-26T11:27:39;1.45;;;1.00;;
84357;SDS011;74548;47.712;9.272;2024-02-26T11:30:12;2.38;;;1.02;;
84357;SDS011;74548;47.712;9.272;2024-02-26T11:32:38;2.85;;;1.08;;
84357;SDS011;74548;47.712;9.272;2024-02-26T11:35:07;1.67;;;1.10;;
84357;SDS011;74548;47.712;9.272;2024-02-26T11:37:35;1.23;;;0.90;;
84357;SDS011;74548;47.712;9.272;2024-02-26T11:40:01;1.70;;;1.13;;
84357;SDS011;74548;47.712;9.272;2024-02-26T11:42:27;1.77;;;0.80;;
84357;SDS011;74548;47.712;9.272;2024-02-26T11:44:53;1.15;;;0.75;;
84357;SDS011;74548;47.712;9.272;2024-02-26T11:49:43;2.50;;;1.05;;
84357;SDS011;74548;47.712;9.272;2024-02-26T11:52:09;1.67;;;1.00;;
84357;SDS011;74548;47.712;9.272;2024-02-26T11:54:38;1.92;;;1.00;;
84357;SDS011;74548;47.712;9.272;2024-02-26T11:57:04;2.17;;;0.95;;
84357;SDS011;74548;47.712;9.272;2024-02-26T11:59:38;2.05;;;1.05;;
84357;SDS011;74548;47.712;9.272;2024-02-26T12:02:05;2.45;;;1.00;;
84357;SDS011;74548;47.712;9.272;2024-02-26T12:04:32;2.67;;;0.93;;
84357;SDS011;74548;47.712;9.272;2024-02-26T12:07:00;2.55;;;0.95;;
84357;SDS011;74548;47.712;9.272;2024-02-26T12:11:59;2.03;;;0.98;;
84357;SDS011;74548;47.712;9.272;2024-02-26T12:16:45;2.72;;;0.90;;
84357;SDS011;74548;47.712;9.272;2024-02-26T12:19:10;1.25;;;1.00;;
84357;SDS011;74548;47.712;9.272;2024-02-26T12:21:36;1.73;;;0.80;;
84357;SDS011;74548;47.712;9.272;2024-02-26T12:24:12;1.63;;;0.90;;
84357;SDS011;74548;47.712;9.272;2024-02-26T12:26:39;2.40;;;1.20;;
84357;SDS011;74548;47.712;9.272;2024-02-26T12:29:05;1.63;;;0.98;;
84357;SDS011;74548;47.712;9.272;2024-02-26T12:31:31;1.27;;;0.80;;
84357;SDS011;74548;47.712;9.272;2024-02-26T12:33:58;1.60;;;1.00;;
84357;SDS011;74548;47.712;9.272;2024-02-26T12:36:24;2.30;;;1.20;;
84357;SDS011;74548;47.712;9.272;2024-02-26T12:38:50;1.58;;;1.25;;
84357;SDS011;74548;47.712;9.272;2024-02-26T12:41:16;2.20;;;1.20;;
84357;SDS011;74548;47.712;9.272;2024-02-26T12:43:42;2.38;;;1.02;;
84357;SDS011;74548;47.712;9.272;2024-02-26T12:46:07;1.67;;;1.08;;
84357;SDS011;74548;47.712;9.272;2024-02-26T12:48:33;1.73;;;0.93;;
84357;SDS011;74548;47.712;9.272;2024-02-26T12:50:58;1.75;;;1.05;;
84357;SDS011;74548;47.712;9.272;2024-02-26T12:53:24;1.63;;;1.00;;
84357;SDS011;74548;47.712;9.272;2024-02-26T12:55:51;1.95;;;1.10;;
84357;SDS011;74548;47.712;9.272;2024-02-26T12:58:17;2.20;;;1.30;;
84357;SDS011;74548;47.712;9.272;2024-02-26T13:00:44;1.90;;;1.33;;
84357;SDS011;74548;47.712;9.272;2024-02-26T13:03:11;1.25;;;0.77;;
84357;SDS011;74548;47.712;9.272;2024-02-26T13:05:37;1.92;;;0.90;;
84357;SDS011;74548;47.712;9.272;2024-02-26T13:08:03;2.85;;;1.05;;
84357;SDS011;74548;47.712;9.272;2024-02-26T13:12:48;1.80;;;1.15;;
84357;SDS011;74548;47.712;9.272;2024-02-26T13:15:17;1.88;;;1.50;;
84357;SDS011;74548;47.712;9.272;2024-02-26T13:17:44;2.92;;;1.10;;
84357;SDS011;74548;47.712;9.272;2024-02-26T13:20:10;2.13;;;1.10;;
84357;SDS011;74548;47.712;9.272;2024-02-26T13:22:36;2.00;;;1.20;;
84357;SDS011;74548;47.712;9.272;2024-02-26T13:25:02;2.72;;;1.10;;
84357;SDS011;74548;47.712;9.272;2024-02-26T13:27:28;2.08;;;1.10;;
84357;SDS011;74548;47.712;9.272;2024-02-26T13:35:05;2.42;;;1.20;;
84357;SDS011;74548;47.712;9.272;2024-02-26T13:37:32;2.60;;;1.25;;
84357;SDS011;74548;47.712;9.272;2024-02-26T13:39:58;1.45;;;0.80;;
84357;SDS011;74548;47.712;9.272;2024-02-26T13:44:44;1.77;;;1.10;;
84357;SDS011;74548;47.712;9.272;2024-02-26T13:47:09;2.50;;;0.93;;
84357;SDS011;74548;47.712;9.272;2024-02-26T13:49:35;2.10;;;1.13;;
84357;SDS011;74548;47.712;9.272;2024-02-26T13:52:00;1.95;;;1.13;;
84357;SDS011;74548;47.712;9.272;2024-02-26T13:54:26;2.05;;;1.13;;
84357;SDS011;74548;47.712;9.272;2024-02-26T13:56:51;2.10;;;1.17;;
84357;SDS011;74548;47.712;9.272;2024-02-26T13:59:18;2.00;;;1.13;;
84357;SDS011;74548;47.712;9.272;2024-02-26T14:01:43;2.22;;;1.40;;
84357;SDS011;74548;47.712;9.272;2024-02-26T14:04:08;2.37;;;1.10;;
84357;SDS011;74548;47.712;9.272;2024-02-26T14:06:34;1.58;;;0.80;;
84357;SDS011;74548;47.712;9.272;2024-02-26T14:08:59;1.40;;;0.90;;
84357;SDS011;74548;47.712;9.272;2024-02-26T14:11:25;1.47;;;1.00;;
84357;SDS011;74548;47.712;9.272;2024-02-26T14:13:50;1.10;;;0.88;;
84357;SDS011;74548;47.712;9.272;2024-02-26T14:20:55;1.98;;;0.90;;
84357;SDS011;74548;47.712;9.272;2024-02-26T14:23:20;1.60;;;1.00;;
84357;SDS011;74548;47.712;9.272;2024-02-26T14:28:13;1.65;;;1.00;;
84357;SDS011;74548;47.712;9.272;2024-02-26T14:30:39;1.37;;;0.90;;
84357;SDS011;74548;47.712;9.272;2024-02-26T14:33:04;2.00;;;1.10;;
84357;SDS011;74548;47.712;9.272;2024-02-26T14:35:29;2.00;;;1.15;;
84357;SDS011;74548;47.712;9.272;2024-02-26T14:37:55;1.88;;;1.00;;
84357;SDS011;74548;47.712;9.272;2024-02-26T14:40:25;2.08;;;1.25;;
84357;SDS011;74548;47.712;9.272;2024-02-26T14:42:51;1.13;;;0.70;;
84357;SDS011;74548;47.712;9.272;2024-02-26T14:45:16;1.75;;;1.10;;
84357;SDS011;74548;47.712;9.272;2024-02-26T14:47:41;2.10;;;1.00;;
84357;SDS011;74548;47.712;9.272;2024-02-26T14:50:07;1.50;;;0.90;;
84357;SDS011;74548;47.712;9.272;2024-02-26T14:52:32;1.35;;;0.77;;
84357;SDS011;74548;47.712;9.272;2024-02-26T14:54:58;1.10;;;0.68;;
84357;SDS011;74548;47.712;9.272;2024-02-26T14:57:24;2.50;;;0.90;;
84357;SDS011;74548;47.712;9.272;2024-02-26T14:59:49;2.88;;;1.10;;
84357;SDS011;74548;47.712;9.272;2024-02-26T15:02:15;1.42;;;0.90;;
84357;SDS011;74548;47.712;9.272;2024-02-26T15:04:41;1.85;;;0.88;;
84357;SDS011;74548;47.712;9.272;2024-02-26T15:07:06;2.45;;;0.95;;
84357;SDS011;74548;47.712;9.272;2024-02-26T15:09:32;1.65;;;0.80;;
84357;SDS011;74548;47.712;9.272;2024-02-26T15:11:57;1.50;;;1.08;;
84357;SDS011;74548;47.712;9.272;2024-02-26T15:14:23;2.13;;;1.38;;
84357;SDS011;74548;47.712;9.272;2024-02-26T15:16:48;1.52;;;0.82;;
84357;SDS011;74548;47.712;9.272;2024-02-26T15:19:15;1.50;;;0.88;;
84357;SDS011;74548;47.712;9.272;2024-02-26T15:21:44;1.60;;;0.93;;
84357;SDS011;74548;47.712;9.272;2024-02-26T15:24:10;1.63;;;1.00;;
84357;SDS011;74548;47.712;9.272;2024-02-26T15:26:36;1.25;;;0.80;;
84357;SDS011;74548;47.712;9.272;2024-02-26T15:29:02;1.42;;;0.95;;
84357;SDS011;74548;47.712;9.272;2024-02-26T15:31:27;1.67;;;0.80;;
84357;SDS011;74548;47.712;9.272;2024-02-26T15:33:52;1.13;;;0.70;;
84357;SDS011;74548;47.712;9.272;2024-02-26T15:36:18;1.33;;;0.83;;
84357;SDS011;74548;47.712;9.272;2024-02-26T15:38:43;1.60;;;1.10;;
84357;SDS011;74548;47.712;9.272;2024-02-26T15:41:12;1.67;;;0.80;;
84357;SDS011;74548;47.712;9.272;2024-02-26T15:43:38;1.60;;;1.15;;
84357;SDS011;74548;47.712;9.272;2024-02-26T15:46:03;1.38;;;0.95;;
84357;SDS011;74548;47.712;9.272;2024-02-26T15:48:30;1.40;;;0.80;;